Osgood, IN

07:05 AM EDT dna 31 Október, 2014 (GMT -0400)
KINDILLS2 | Change Station
CLOSE
Current Station
Personal Weather Stations
Location: Dillsboro, IN
Nad. výška:: 840 ft
Najbližšie meteo stanice

Elev 840 ft 39.00 °N, 85.02 °W | Updated 10 seconds ago

Zamračené
Zamračené
43.3 °F
Feels Like 43 °F
N
0.0
Vietor meniaci sa Vietor from VJV
Gusts 0.0 mph

Dnes
High -- | Low -- °F
--% Chance of Precip.
Yesterday
High -- | Low -- °F
Precip. -- in
8:07 AM 6:41 PM
Prvá štvrtina, 54% visible
Tlak 30.00 in
Viditeľnosť 10.0 mile
Oblačnost Ojedinelé mraky 8000 ft
Zamračené 11000 ft
Pocitová teplota 43 °F
Rosný bod 41 °F
Vlhkosť 91%
Rainfall 0.00 in
Výška snehu Not available.
UV 0 out of 12
Pollen .10 out of 12
Air Quality Not available.
Flu Activity Not available.
METAR KBAK 311050Z 30004KT 10SM SCT080 OVC110 05/04 A3000

More Conditions Fewer Conditions

Tlak 30.00 in
Viditeľnosť 10.0 mile
Oblačnost Ojedinelé mraky 8000 ft
Zamračené 11000 ft
Pocitová teplota 43 °F
Rosný bod 41 °F
Vlhkosť 91%
Rainfall 0.00 in
Výška snehu Not available.
UV 0 out of 12
Pollen .10 out of 12
Air Quality Not available.
Flu Activity Not available.
METAR KBAK 311050Z 30004KT 10SM SCT080 OVC110 05/04 A3000

More Conditions Fewer Conditions

10-Day Weather Forecast

Almanac

Astronómia

Oct. 31, 2014 Východ Západ
Aktuálny čas
Civil Twilight
Nautical Twilight
Astronomical Twilight
Mesiac
Length Of Visible Light
Dĺžka dňa
Tomorrow will be .
, % of the Moon is Illuminated

Today's Extremes

State Highs State Lows

Community

WunderPhotos

Upload Photos

1,766,581 photos uploaded!

WunderBlogs® & News

Nearby

Air Quality

  Air Quality AQ Index Pollutant
Not available.

Výska snehu

Station Depth Nad. výška:

Aktivita zemetrasenia

Mesto Distance Mag. Time & Date
Minimum magnitude displayed is 2.5.

Coastal Water Temperatures

Miesto Teplota

Najbližšie meteo stanice